Centennial Airport
KAPA : now visible

Airfield :











YOU CAN JOIN US ON...

 
LOGIN :

Register | Disclaimer

   EN    FR    IT 

 









Legend :    VFR   Marginal VFR   IFR   Intensive IFR   Very Intensive IFR
Visi :
Ceiling :
>= 8 km
>= 3000ft
5 to 8 km
1000 to 3000 ft
1500m to 5 km
500 to 1000 ft
800 to 1500m
200 to 500 ft
< 800m
< 200 ft
Symbols :   Thunderstorms  Fog  Heavy snow  Heavy precipitations  Wind > 20 kt






- Airport Elevation : 5885 ft


KAPA - Centennial

CURRENT METAR :
  • 251853Z 36011KT 3/4SM -SN BR BKN012 OVC020 M11/M13 A3015 RMK AO2 SLP268 P0002 T11061133

EXPIRED METARs :
  • 251843Z 01010KT 1/2SM SN FZFG BKN012 OVC020 M11/M13 A3014 RMK AO2 TWR VIS 3/4 P0002 T11061128
  • 251759Z 35011KT 3/4SM -SN BR BKN012 OVC020 M11/M13 A3015 RMK AO2 P0000 T11061128
  • 251753Z 36010KT 1 1/2SM -SN BKN014 BKN018 OVC030 M11/M13 A3015 RMK AO2 TWR VIS 2 SLP266 P0000 60000 T11061133 11089 21106 58000
  • 251707Z 34009KT 2SM -SN BR BKN012 BKN018 OVC030 M11/M13 A3016 RMK AO2 P0000 T11061128
  • 251653Z 35010KT 2SM -SN BR BKN015 BKN020 OVC029 M11/M13 A3015 RMK AO2 SLP263 P0000 T11061128
  • 251644Z 35011KT 2SM -SN BKN015 BKN020 OVC029 M10/M13 A3015 RMK AO2 TWR VIS 3 P0000 T11001128

TAF KAPA
Valid from the 25 at 19:00 until the 26 at 18:00 UTC


251917Z 2519/2618 36010G16KT 1 1/2SM -SN BR BKN010 OVC020
TEMPO 2519/2521 3/4SM -SN BR BKN006
FM252100 02012G20KT 1SM -SN BR BKN007 OVC012
TEMPO 2521/2601 1/2SM SN FZFG BKN003
FM260100 01008KT 1SM -SN BR BKN006 OVC015
FM260600 05007KT 4SM -SN BR SCT008 OVC018
FM261000 10005KT 5SM -SN BR SCT012 OVC025
FM261700 06005KT P6SM VCSH SCT015 OVC030
KZDV FIR / North America



MET'MAP, your aeronautical weather chart ! - Copyright ORBIFLY December 2007 - Disclaimer

ORBIFLY MET'MAP TEAM :

Programming & Development : Alexandra Zaïnal
Concept & original design : Baudouin d'Aumeries
Assistance for programming : Marc-Olivier Méhu
Technical & hardware support : Manuel Goepfert

Contact : metmap@orbifly.com




SOURCES & CREDITS :

   NOAA       Earth
Advisory